Schriever AFB, Colorado
Current Conditions -  °F | °C
As of 6:54 AM on Thursday 27 Nov 2014 (Local Time) from KCOS Reporting Station
Broken Clouds Broken Clouds  
Wind Chill: 30°   Ceiling: 25000
Heat Index: 34°   Visibility: 10mi
Dew Point: 18°   Wind: 5mph
Humidity: 52%   Direction: 30°NNE
Pressure: 30.28"   Gusts: NA
Location:  38.8334°N, 104.82°W
Report Text: KCOS 271354Z 03004KT 10SM SCT220 BKN250 01/M08 A3028 RMK AO2 SLP284 CCSL S AND NW T00111078
Loading
Personal Weather Stations






























Interactive Weather Map New forecast layout! Learn more

10-Day Weather Forecast

Advertisements
Track Severe Weather on mobile